createdAt,value
2017-08-23T00:00:55.147Z,10.9
2017-08-23T00:01:54.239Z,10.9
2017-08-23T00:02:53.925Z,10.9
2017-08-23T00:03:53.011Z,10.8
2017-08-23T00:04:52.205Z,10.8
2017-08-23T00:05:51.397Z,10.8
2017-08-23T00:06:50.588Z,10.8
2017-08-23T00:07:49.685Z,10.8
2017-08-23T00:08:48.867Z,10.8
2017-08-23T00:09:48.113Z,10.8
2017-08-23T00:10:47.315Z,10.7
2017-08-23T00:11:46.512Z,10.7
2017-08-23T00:12:45.715Z,10.7
2017-08-23T00:13:44.910Z,10.7
2017-08-23T00:14:43.987Z,10.7
2017-08-23T00:15:43.326Z,10.7
2017-08-23T00:17:41.553Z,10.7
2017-08-23T00:18:40.633Z,10.7
2017-08-23T00:19:39.715Z,10.7
2017-08-23T00:20:39.412Z,10.7
2017-08-23T00:21:38.605Z,10.7
2017-08-23T00:22:37.678Z,10.7
2017-08-23T00:23:08.194Z,10.7
2017-08-23T00:23:38.580Z,10.7
2017-08-23T00:24:08.966Z,10.7
2017-08-23T00:25:35.350Z,10.6
2017-08-23T00:26:34.426Z,10.6
2017-08-23T00:27:33.487Z,10.6
2017-08-23T00:28:32.679Z,10.6
2017-08-23T00:30:31.262Z,10.6
2017-08-23T00:31:30.450Z,10.6
2017-08-23T00:32:29.648Z,10.6
2017-08-23T00:33:28.848Z,10.6
2017-08-23T00:34:28.041Z,10.6
2017-08-23T00:35:27.232Z,10.5
2017-08-23T00:36:26.425Z,10.5
2017-08-23T00:37:25.621Z,10.6
2017-08-23T00:38:24.815Z,10.5
2017-08-23T00:39:23.900Z,10.5
2017-08-23T00:40:23.097Z,10.5
2017-08-23T00:41:22.290Z,10.5
2017-08-23T00:42:21.364Z,10.5
2017-08-23T00:43:20.818Z,10.5
2017-08-23T00:44:20.001Z,10.5
2017-08-23T00:45:19.072Z,10.5
2017-08-23T00:46:18.275Z,10.5
2017-08-23T00:48:16.347Z,10.5
2017-08-23T00:49:15.573Z,10.5
2017-08-23T00:50:14.652Z,10.5
2017-08-23T00:51:13.847Z,10.5
2017-08-23T00:52:14.474Z,10.4
2017-08-23T00:53:12.537Z,10.4
2017-08-23T00:54:11.366Z,10.4
2017-08-23T00:55:10.825Z,10.4
2017-08-23T00:56:09.901Z,10.4
2017-08-23T00:58:08.250Z,10.4
2017-08-23T01:00:06.637Z,10.4
2017-08-23T01:01:05.596Z,10.4
2017-08-23T01:02:05.306Z,10.4
2017-08-23T01:03:04.261Z,10.4
2017-08-23T01:04:03.462Z,10.4
2017-08-23T01:05:02.660Z,10.4
2017-08-23T01:06:01.622Z,10.4
2017-08-23T01:07:00.825Z,10.4
2017-08-23T01:08:00.020Z,10.4
2017-08-23T01:08:59.212Z,10.4
2017-08-23T01:09:58.286Z,10.4
2017-08-23T01:10:57.975Z,10.4
2017-08-23T01:12:56.056Z,10.4
2017-08-23T01:13:55.253Z,10.3
2017-08-23T01:14:54.440Z,10.3
2017-08-23T01:15:53.619Z,10.3
2017-08-23T01:16:53.095Z,10.4
2017-08-23T01:17:23.486Z,10.4
2017-08-23T01:18:51.248Z,10.3
2017-08-23T01:19:50.084Z,10.3
2017-08-23T01:20:49.670Z,10.3
2017-08-23T01:21:48.577Z,10.3
2017-08-23T01:22:48.150Z,10.3
2017-08-23T01:23:47.243Z,10.3
2017-08-23T01:24:46.454Z,10.3
2017-08-23T01:25:45.664Z,10.3
2017-08-23T01:26:44.866Z,10.3
2017-08-23T01:27:43.581Z,10.3
2017-08-23T01:28:43.271Z,10.3
2017-08-23T01:29:42.355Z,10.3
2017-08-23T01:30:41.440Z,10.3
2017-08-23T01:31:40.437Z,10.3
2017-08-23T01:32:39.511Z,10.3
2017-08-23T01:33:38.965Z,10.3
2017-08-23T01:34:38.039Z,10.3
2017-08-23T01:35:37.107Z,10.3
2017-08-23T01:36:36.690Z,10.3
2017-08-23T01:37:35.761Z,10.2
2017-08-23T01:38:34.843Z,10.2
2017-08-23T01:39:34.053Z,10.2
2017-08-23T01:40:33.243Z,10.2
2017-08-23T01:41:32.315Z,10.3
2017-08-23T01:42:31.525Z,10.3
2017-08-23T01:43:30.713Z,10.3
2017-08-23T01:44:29.781Z,10.2
2017-08-23T01:45:29.002Z,10.2
2017-08-23T01:46:28.210Z,10.2
2017-08-23T01:47:27.410Z,10.2
2017-08-23T01:47:57.793Z,10.2
2017-08-23T01:48:28.567Z,10.2
2017-08-23T01:48:59.087Z,10.2
2017-08-23T01:49:29.591Z,10.2
2017-08-23T01:50:00.101Z,10.2
2017-08-23T01:51:24.329Z,10.2
2017-08-23T01:52:23.523Z,10.2
2017-08-23T01:53:23.272Z,10.2
2017-08-23T01:54:21.970Z,10.2
2017-08-23T01:55:21.166Z,10.2
2017-08-23T01:56:20.367Z,10.2
2017-08-23T01:57:19.440Z,10.2
2017-08-23T01:58:18.513Z,10.2
2017-08-23T01:59:17.695Z,10.2
2017-08-23T02:00:16.887Z,10.3
2017-08-23T02:01:16.080Z,10.3
2017-08-23T02:02:15.290Z,10.3
2017-08-23T02:03:14.382Z,10.3
2017-08-23T02:04:13.338Z,10.3
2017-08-23T02:05:12.406Z,10.3
2017-08-23T02:06:11.868Z,10.4
2017-08-23T02:07:10.948Z,10.3
2017-08-23T02:08:10.139Z,10.4
2017-08-23T02:09:09.201Z,10.4
2017-08-23T02:10:08.408Z,10.4
2017-08-23T02:11:07.594Z,10.4
2017-08-23T02:12:06.780Z,10.4
2017-08-23T02:13:06.365Z,10.4
2017-08-23T02:14:05.560Z,10.4
2017-08-23T02:15:04.766Z,10.4
2017-08-23T02:16:03.453Z,10.4
2017-08-23T02:17:02.649Z,10.4
2017-08-23T02:18:01.744Z,10.4
2017-08-23T02:19:01.438Z,10.4
2017-08-23T02:20:00.653Z,10.5
2017-08-23T02:20:59.338Z,10.5
2017-08-23T02:21:58.542Z,10.5
2017-08-23T02:22:57.738Z,10.5
2017-08-23T02:23:56.933Z,10.5
2017-08-23T02:24:56.389Z,10.5
2017-08-23T02:25:55.592Z,10.5
2017-08-23T02:26:54.799Z,10.5
2017-08-23T02:27:54.001Z,10.5
2017-08-23T02:28:53.206Z,10.5
2017-08-23T02:29:52.419Z,10.5
2017-08-23T02:30:51.635Z,10.5
2017-08-23T02:31:50.219Z,10.5
2017-08-23T02:32:49.672Z,10.5
2017-08-23T02:33:48.669Z,10.5
2017-08-23T02:34:47.875Z,10.5
2017-08-23T02:35:46.938Z,10.5
2017-08-23T02:36:46.625Z,10.5
2017-08-23T02:37:45.813Z,10.5
2017-08-23T02:38:45.011Z,10.5
2017-08-23T02:39:44.082Z,10.5
2017-08-23T02:40:14.485Z,10.5
2017-08-23T02:40:44.862Z,10.5
2017-08-23T02:41:42.304Z,10.5
2017-08-23T02:42:41.260Z,10.5
2017-08-23T02:43:40.860Z,10.5
2017-08-23T02:44:39.925Z,10.5
2017-08-23T02:45:39.115Z,10.5
2017-08-23T02:46:38.227Z,10.5
2017-08-23T02:47:37.299Z,10.5
2017-08-23T02:48:36.496Z,10.5
2017-08-23T02:49:35.564Z,10.5
2017-08-23T02:50:34.752Z,10.5
2017-08-23T02:51:34.323Z,10.5
2017-08-23T02:52:33.512Z,10.4
2017-08-23T02:53:32.693Z,10.4
2017-08-23T02:54:31.667Z,10.4
2017-08-23T02:55:30.860Z,10.4
2017-08-23T02:56:30.042Z,10.4
2017-08-23T02:57:29.106Z,10.4
2017-08-23T02:58:28.180Z,10.3
2017-08-23T02:59:27.364Z,10.3
2017-08-23T03:00:26.549Z,10.3
2017-08-23T03:01:25.728Z,10.3
2017-08-23T03:02:24.917Z,10.3
2017-08-23T03:03:24.114Z,10.2
2017-08-23T03:04:23.299Z,10.2
2017-08-23T03:05:22.362Z,10.2
2017-08-23T03:06:21.921Z,10.2
2017-08-23T03:07:20.879Z,10.2
2017-08-23T03:08:19.941Z,10.2
2017-08-23T03:09:19.119Z,10.2
2017-08-23T03:10:18.320Z,10.2
2017-08-23T03:11:17.772Z,10.2
2017-08-23T03:12:16.949Z,10.1
2017-08-23T03:13:16.131Z,10.1
2017-08-23T03:14:15.088Z,10.1
2017-08-23T03:15:14.285Z,10.1
2017-08-23T03:16:13.476Z,10.1
2017-08-23T03:17:12.934Z,10.1
2017-08-23T03:18:12.126Z,10.1
2017-08-23T03:19:11.207Z,10.1
2017-08-23T03:20:10.263Z,10.1
2017-08-23T03:21:09.323Z,10.1
2017-08-23T03:22:08.775Z,10.1
2017-08-23T03:23:07.962Z,10.1
2017-08-23T03:24:07.042Z,10.1
2017-08-23T03:25:06.114Z,10.1
2017-08-23T03:26:05.183Z,10.1
2017-08-23T03:27:04.132Z,10
2017-08-23T03:28:03.690Z,10
2017-08-23T03:29:02.864Z,10
2017-08-23T03:30:02.066Z,10
2017-08-23T03:31:01.272Z,10
2017-08-23T03:32:00.475Z,10
2017-08-23T03:32:59.555Z,10
2017-08-23T03:33:58.619Z,10
2017-08-23T03:34:57.803Z,9.9
2017-08-23T03:35:56.989Z,9.9
2017-08-23T03:36:56.175Z,9.9
2017-08-23T03:37:55.356Z,9.9
2017-08-23T03:38:54.440Z,9.9
2017-08-23T03:39:53.498Z,9.9
2017-08-23T03:40:52.946Z,9.9
2017-08-23T03:41:52.142Z,9.8
2017-08-23T03:43:50.088Z,9.8
2017-08-23T03:44:49.783Z,9.8
2017-08-23T03:45:48.965Z,9.8
2017-08-23T03:46:48.161Z,9.8
2017-08-23T03:47:47.347Z,9.8
2017-08-23T03:48:46.534Z,9.8
2017-08-23T03:49:45.093Z,9.8
2017-08-23T03:50:44.808Z,9.7
2017-08-23T03:51:43.758Z,9.7
2017-08-23T03:52:42.819Z,9.7
2017-08-23T03:53:42.267Z,9.7
2017-08-23T03:54:41.469Z,9.7
2017-08-23T03:55:40.656Z,9.7
2017-08-23T03:56:39.732Z,9.7
2017-08-23T03:57:38.797Z,9.7
2017-08-23T03:58:37.853Z,9.7
2017-08-23T03:59:37.042Z,9.7
2017-08-23T04:00:36.108Z,9.7
2017-08-23T04:01:35.180Z,9.7
2017-08-23T04:02:34.395Z,9.7
2017-08-23T04:03:33.851Z,9.7
2017-08-23T04:04:32.924Z,9.7
2017-08-23T04:05:32.099Z,9.7
2017-08-23T04:06:31.282Z,9.7
2017-08-23T04:07:30.347Z,9.7
2017-08-23T04:08:29.535Z,9.7
2017-08-23T04:09:28.718Z,9.7
2017-08-23T04:10:27.913Z,9.7
2017-08-23T04:11:27.002Z,9.7
2017-08-23T04:12:26.194Z,9.7
2017-08-23T04:13:25.376Z,9.8
2017-08-23T04:14:24.564Z,9.8
2017-08-23T04:15:23.744Z,9.8
2017-08-23T04:16:22.811Z,9.8
2017-08-23T04:17:22.398Z,9.8
2017-08-23T04:18:21.468Z,9.8
2017-08-23T04:19:20.660Z,9.8
2017-08-23T04:20:19.626Z,9.8
2017-08-23T04:21:18.823Z,9.8
2017-08-23T04:22:17.891Z,9.9
2017-08-23T04:23:17.078Z,9.9
2017-08-23T04:24:16.518Z,9.9
2017-08-23T04:25:15.695Z,9.9
2017-08-23T04:26:14.757Z,9.9
2017-08-23T04:27:13.836Z,9.9
2017-08-23T04:28:12.908Z,9.9
2017-08-23T04:29:12.101Z,9.9
2017-08-23T04:30:11.343Z,9.9
2017-08-23T04:31:10.534Z,9.9
2017-08-23T04:32:09.357Z,9.9
2017-08-23T04:33:08.814Z,9.9
2017-08-23T04:34:07.883Z,9.9
2017-08-23T04:35:07.085Z,9.9
2017-08-23T04:36:06.666Z,9.9
2017-08-23T04:38:05.006Z,9.9
2017-08-23T04:39:04.071Z,9.9
2017-08-23T04:40:03.033Z,9.9
2017-08-23T04:41:02.117Z,9.9
2017-08-23T04:42:01.693Z,9.9
2017-08-23T04:43:00.757Z,9.9
2017-08-23T04:43:59.844Z,9.9
2017-08-23T04:44:58.909Z,9.9
2017-08-23T04:45:58.089Z,9.9
2017-08-23T04:46:57.263Z,9.9
2017-08-23T04:47:56.330Z,9.9
2017-08-23T04:48:55.406Z,9.9
2017-08-23T04:50:53.978Z,9.9
2017-08-23T04:51:53.156Z,9.9
2017-08-23T04:52:52.227Z,9.9
2017-08-23T04:53:51.409Z,9.9
2017-08-23T04:54:50.480Z,9.9
2017-08-23T04:55:49.669Z,9.9
2017-08-23T04:56:49.250Z,9.9
2017-08-23T04:57:48.337Z,9.9
2017-08-23T04:58:47.423Z,9.9
2017-08-23T04:59:46.602Z,9.9
2017-08-23T05:00:45.780Z,9.9
2017-08-23T05:01:44.960Z,9.9
2017-08-23T05:02:44.150Z,9.9
2017-08-23T05:03:43.109Z,9.9
2017-08-23T05:04:42.575Z,9.9
2017-08-23T05:05:41.640Z,9.9
2017-08-23T05:07:39.710Z,9.8
2017-08-23T05:08:39.280Z,9.9
2017-08-23T05:09:38.466Z,9.8
2017-08-23T05:10:37.030Z,9.9
2017-08-23T05:11:36.724Z,9.8
2017-08-23T05:12:35.664Z,9.9
2017-08-23T05:13:34.854Z,9.9
2017-08-23T05:14:33.798Z,9.9
2017-08-23T05:15:33.491Z,9.9
2017-08-23T05:16:32.595Z,9.9
2017-08-23T05:17:31.782Z,9.9
2017-08-23T05:18:30.964Z,9.9
2017-08-23T05:19:30.028Z,9.9
2017-08-23T05:20:29.214Z,9.9
2017-08-23T05:21:28.405Z,10
2017-08-23T05:22:27.482Z,10
2017-08-23T05:23:26.683Z,10
2017-08-23T05:24:25.750Z,10
2017-08-23T05:25:24.939Z,10
2017-08-23T05:26:24.120Z,10
2017-08-23T05:27:23.312Z,10
2017-08-23T05:28:22.494Z,10
2017-08-23T05:29:21.568Z,10.1
2017-08-23T05:30:20.752Z,10.1
2017-08-23T05:31:19.827Z,10.1
2017-08-23T05:32:19.009Z,10.1
2017-08-23T05:33:18.197Z,10.1
2017-08-23T05:34:17.267Z,10.1
2017-08-23T05:34:47.769Z,10.1
2017-08-23T05:35:18.202Z,10.2
2017-08-23T05:35:48.693Z,10.2
2017-08-23T05:36:19.070Z,10.2
2017-08-23T05:36:49.336Z,10.2
2017-08-23T05:37:19.725Z,10.2
2017-08-23T05:38:14.391Z,10.2
2017-08-23T05:39:13.466Z,10.2
2017-08-23T05:40:12.410Z,10.3
2017-08-23T05:41:11.596Z,10.3
2017-08-23T05:42:10.667Z,10.3
2017-08-23T05:43:10.234Z,10.4
2017-08-23T05:44:09.198Z,10.4
2017-08-23T05:45:08.379Z,10.4
2017-08-23T05:47:06.858Z,10.4
2017-08-23T05:48:06.042Z,10.4
2017-08-23T05:49:05.012Z,10.4
2017-08-23T05:50:04.197Z,10.5
2017-08-23T05:51:03.399Z,10.5
2017-08-23T05:52:02.473Z,10.5
2017-08-23T05:53:01.938Z,10.5
2017-08-23T05:54:01.137Z,10.6
2017-08-23T05:55:00.220Z,10.6
2017-08-23T05:55:59.046Z,10.6
2017-08-23T05:56:58.115Z,10.7
2017-08-23T05:57:57.805Z,10.7
2017-08-23T05:58:56.986Z,10.7
2017-08-23T05:59:55.945Z,10.7
2017-08-23T06:00:55.004Z,10.8
2017-08-23T06:01:54.452Z,10.8
2017-08-23T06:02:53.638Z,10.8
2017-08-23T06:03:52.824Z,10.9
2017-08-23T06:04:52.012Z,11
2017-08-23T06:05:51.201Z,11
2017-08-23T06:06:50.392Z,11
2017-08-23T06:07:49.450Z,11
2017-08-23T06:08:48.524Z,11
2017-08-23T06:09:47.715Z,11
2017-08-23T06:10:46.906Z,11.1
2017-08-23T06:11:46.085Z,11.1
2017-08-23T06:12:45.274Z,11.1
2017-08-23T06:13:44.468Z,11.2
2017-08-23T06:15:43.046Z,11.2
2017-08-23T06:16:42.235Z,11.2
2017-08-23T06:17:40.915Z,11.3
2017-08-23T06:18:40.109Z,11.3
2017-08-23T06:19:39.304Z,11.3
2017-08-23T06:20:38.491Z,11.3
2017-08-23T06:21:38.057Z,11.4
2017-08-23T06:22:37.133Z,11.4
2017-08-23T06:23:36.197Z,11.4
2017-08-23T06:24:35.264Z,11.4
2017-08-23T06:25:34.837Z,11.4
2017-08-23T06:26:33.906Z,11.5
2017-08-23T06:27:32.974Z,11.5
2017-08-23T06:28:32.148Z,11.5
2017-08-23T06:29:31.211Z,11.5
2017-08-23T06:30:30.278Z,11.6
2017-08-23T06:31:29.960Z,11.6
2017-08-23T06:32:29.033Z,11.6
2017-08-23T06:33:28.223Z,11.7
2017-08-23T06:34:27.292Z,11.7
2017-08-23T06:35:26.484Z,11.8
2017-08-23T06:36:25.570Z,11.8
2017-08-23T06:37:24.637Z,11.9
2017-08-23T06:38:24.214Z,11.9
2017-08-23T06:40:22.289Z,12.1
2017-08-23T06:42:20.874Z,12.1
2017-08-23T06:43:19.948Z,12.1
2017-08-23T06:44:19.127Z,12.2
2017-08-23T06:45:18.335Z,12.2
2017-08-23T06:46:17.524Z,12.2
2017-08-23T06:47:16.711Z,12.2
2017-08-23T06:48:15.911Z,12.3
2017-08-23T06:49:15.115Z,12.3
2017-08-23T06:50:14.194Z,12.3
2017-08-23T06:52:12.660Z,12.4
2017-08-23T06:53:11.736Z,12.4
2017-08-23T06:54:10.936Z,12.4
2017-08-23T06:55:10.513Z,12.5
2017-08-23T06:56:09.717Z,12.5
2017-08-23T06:57:08.790Z,12.5
2017-08-23T06:58:07.996Z,12.5
2017-08-23T06:59:06.841Z,12.5
2017-08-23T07:00:05.921Z,12.5
2017-08-23T07:01:05.452Z,12.6
2017-08-23T07:02:04.788Z,12.6
2017-08-23T07:03:03.747Z,12.6
2017-08-23T07:04:02.940Z,12.6
2017-08-23T07:05:01.894Z,12.7
2017-08-23T07:06:01.598Z,12.7
2017-08-23T07:07:00.658Z,12.7
2017-08-23T07:07:59.730Z,12.7
2017-08-23T07:08:58.802Z,12.8
2017-08-23T07:09:58.374Z,12.8
2017-08-23T07:10:57.344Z,12.8
2017-08-23T07:11:56.405Z,12.8
2017-08-23T07:12:55.599Z,12.9
2017-08-23T07:13:54.688Z,12.9
2017-08-23T07:14:54.252Z,12.9
2017-08-23T07:15:53.444Z,13
2017-08-23T07:16:52.642Z,13
2017-08-23T07:17:51.981Z,13
2017-08-23T07:18:51.168Z,13.1
2017-08-23T07:19:50.365Z,13.2
2017-08-23T07:21:48.437Z,13.2
2017-08-23T07:22:18.810Z,13.2
2017-08-23T07:23:47.192Z,13.2
2017-08-23T07:24:46.377Z,13.2
2017-08-23T07:25:45.558Z,13.3
2017-08-23T07:27:44.708Z,13.3
2017-08-23T07:28:42.883Z,13.3
2017-08-23T07:29:42.584Z,13.4
2017-08-23T07:30:41.652Z,13.4
2017-08-23T07:31:40.834Z,13.4
2017-08-23T07:32:40.018Z,13.5
2017-08-23T07:33:39.212Z,13.5
2017-08-23T07:34:38.422Z,13.6
2017-08-23T07:35:37.495Z,13.6
2017-08-23T07:36:36.689Z,13.6
2017-08-23T07:37:35.749Z,13.7
2017-08-23T07:38:35.217Z,13.8
2017-08-23T07:39:34.288Z,13.8
2017-08-23T07:40:33.481Z,13.8
2017-08-23T07:41:32.561Z,13.9
2017-08-23T07:43:31.398Z,14
2017-08-23T07:44:30.581Z,14
2017-08-23T07:45:29.918Z,14
2017-08-23T07:47:27.998Z,14.1
2017-08-23T07:48:27.582Z,14.1
2017-08-23T07:49:26.661Z,14.1
2017-08-23T07:50:25.849Z,14.1
2017-08-23T07:51:24.941Z,14.2
2017-08-23T07:52:24.401Z,14.3
2017-08-23T07:53:23.583Z,14.3
2017-08-23T07:54:22.761Z,14.4
2017-08-23T07:55:21.957Z,14.5
2017-08-23T07:56:21.147Z,14.5
2017-08-23T07:57:20.217Z,14.6
2017-08-23T07:58:19.399Z,14.6
2017-08-23T07:59:18.964Z,14.6
2017-08-23T08:00:18.060Z,14.7
2017-08-23T08:01:17.130Z,14.8
2017-08-23T08:02:16.317Z,14.9
2017-08-23T08:03:15.781Z,15.1
2017-08-23T08:04:14.850Z,15.1
2017-08-23T08:05:14.029Z,15.1
2017-08-23T08:06:13.239Z,15.1
2017-08-23T08:07:12.928Z,15.1
2017-08-23T08:08:11.997Z,15.1
2017-08-23T08:09:11.198Z,15.1
2017-08-23T08:10:10.263Z,15.1
2017-08-23T08:12:08.721Z,15.2
2017-08-23T08:13:08.294Z,15.2
2017-08-23T08:14:07.253Z,15.2
2017-08-23T08:15:06.079Z,15.2
2017-08-23T08:16:05.662Z,15.2
2017-08-23T08:17:05.245Z,15.2
2017-08-23T08:18:04.356Z,15.3
2017-08-23T08:19:03.420Z,15.3
2017-08-23T08:21:02.000Z,15.3
2017-08-23T08:22:01.077Z,15.3
2017-08-23T08:23:00.638Z,15.3
2017-08-23T08:23:59.706Z,15.3
2017-08-23T08:24:58.899Z,15.4
2017-08-23T08:25:58.360Z,15.6
2017-08-23T08:26:57.559Z,15.6
2017-08-23T08:27:56.623Z,15.6
2017-08-23T08:28:55.570Z,15.6
2017-08-23T08:29:55.035Z,15.6
2017-08-23T08:30:54.605Z,15.7
2017-08-23T08:31:53.788Z,15.7
2017-08-23T08:32:52.886Z,15.7
2017-08-23T08:33:52.062Z,15.8
2017-08-23T08:34:51.243Z,15.8
2017-08-23T08:35:50.437Z,15.8
2017-08-23T08:36:49.406Z,15.9
2017-08-23T08:37:48.880Z,15.9
2017-08-23T08:38:48.446Z,15.9
2017-08-23T08:39:47.642Z,15.8
2017-08-23T08:40:46.841Z,15.9
2017-08-23T08:41:46.036Z,15.9
2017-08-23T08:42:45.600Z,16
2017-08-23T08:43:44.784Z,16.1
2017-08-23T08:44:43.844Z,16.1
2017-08-23T08:45:42.905Z,16.2
2017-08-23T08:46:42.355Z,16.2
2017-08-23T08:47:41.366Z,16.3
2017-08-23T08:48:41.049Z,16.3
2017-08-23T08:49:40.235Z,16.3
2017-08-23T08:50:39.334Z,16.2
2017-08-23T08:51:38.904Z,16.3
2017-08-23T08:52:38.088Z,16.3
2017-08-23T08:53:37.148Z,16.3
2017-08-23T08:54:36.344Z,16.3
2017-08-23T08:55:35.529Z,16.4
2017-08-23T08:56:34.921Z,16.4
2017-08-23T08:57:33.989Z,16.5
2017-08-23T08:59:32.832Z,16.5
2017-08-23T09:00:31.908Z,16.5
2017-08-23T09:01:31.088Z,16.5
2017-08-23T09:02:30.546Z,16.5
2017-08-23T09:03:30.009Z,16.5
2017-08-23T09:05:28.360Z,16.5
2017-08-23T09:06:27.812Z,16.6
2017-08-23T09:07:27.013Z,16.6
2017-08-23T09:08:26.224Z,16.6
2017-08-23T09:09:25.411Z,16.6
2017-08-23T09:10:24.615Z,16.7
2017-08-23T09:11:23.808Z,16.7
2017-08-23T09:12:23.011Z,16.7
2017-08-23T09:13:22.090Z,16.8
2017-08-23T09:14:21.548Z,16.9
2017-08-23T09:15:21.243Z,16.9
2017-08-23T09:16:20.445Z,16.9
2017-08-23T09:17:19.504Z,17
2017-08-23T09:18:18.666Z,17.1
2017-08-23T09:19:18.227Z,17.2
2017-08-23T09:20:17.060Z,17.2
2017-08-23T09:21:16.510Z,17.3
2017-08-23T09:22:16.107Z,17.4
2017-08-23T09:23:14.961Z,17.4
2017-08-23T09:24:14.651Z,17.4
2017-08-23T09:25:13.751Z,17.4
2017-08-23T09:26:13.188Z,17.4
2017-08-23T09:27:12.253Z,17.4
2017-08-23T09:28:11.432Z,17.4
2017-08-23T09:29:11.114Z,17.4
2017-08-23T09:30:10.177Z,17.4
2017-08-23T09:31:09.239Z,17.4
2017-08-23T09:32:08.703Z,17.4
2017-08-23T09:33:07.890Z,17.4
2017-08-23T09:34:07.092Z,17.4
2017-08-23T09:35:06.594Z,17.4
2017-08-23T09:36:05.653Z,17.3
2017-08-23T09:37:05.116Z,17.3
2017-08-23T09:38:04.696Z,17.3
2017-08-23T09:38:35.202Z,17.3
2017-08-23T09:39:05.463Z,17.3
2017-08-23T09:40:02.916Z,17.3
2017-08-23T09:41:02.502Z,17.4
2017-08-23T09:42:01.691Z,17.4
2017-08-23T09:43:00.770Z,17.5
2017-08-23T09:43:59.845Z,17.5
2017-08-23T09:44:59.538Z,17.6
2017-08-23T09:45:58.493Z,17.7
2017-08-23T09:47:57.576Z,17.8
2017-08-23T09:48:56.639Z,17.8
2017-08-23T09:49:55.823Z,17.9
2017-08-23T09:50:55.389Z,17.9
2017-08-23T09:51:54.336Z,17.9
2017-08-23T09:52:54.010Z,17.9
2017-08-23T09:53:53.076Z,18
2017-08-23T09:54:52.146Z,18
2017-08-23T09:55:51.737Z,18
2017-08-23T09:56:50.808Z,18
2017-08-23T09:57:50.382Z,18
2017-08-23T09:58:49.560Z,18
2017-08-23T09:59:49.015Z,18
2017-08-23T10:00:48.208Z,17.9
2017-08-23T10:01:47.271Z,17.9
2017-08-23T10:02:46.971Z,17.9
2017-08-23T10:03:46.051Z,17.9
2017-08-23T10:04:45.142Z,17.8
2017-08-23T10:05:44.492Z,17.8
2017-08-23T10:06:44.056Z,17.7
2017-08-23T10:07:43.118Z,17.7
2017-08-23T10:08:42.313Z,17.6
2017-08-23T10:09:41.764Z,17.6
2017-08-23T10:10:40.942Z,17.6
2017-08-23T10:11:40.400Z,17.6
2017-08-23T10:12:39.742Z,17.6
2017-08-23T10:13:38.945Z,17.6
2017-08-23T10:14:38.007Z,17.7
2017-08-23T10:15:37.455Z,17.7
2017-08-23T10:16:37.030Z,17.7
2017-08-23T10:17:36.223Z,17.7
2017-08-23T10:18:35.672Z,17.7
2017-08-23T10:19:34.625Z,17.7
2017-08-23T10:20:34.191Z,17.7
2017-08-23T10:21:33.414Z,17.7
2017-08-23T10:22:32.768Z,17.7
2017-08-23T10:23:31.853Z,17.8
2017-08-23T10:24:31.312Z,17.8
2017-08-23T10:25:30.777Z,17.8
2017-08-23T10:26:29.859Z,17.9
2017-08-23T10:27:29.195Z,17.9
2017-08-23T10:28:28.649Z,18
2017-08-23T10:29:27.826Z,18.1
2017-08-23T10:30:27.410Z,18.1
2017-08-23T10:32:25.989Z,18.3
2017-08-23T10:33:25.052Z,18.4
2017-08-23T10:34:24.130Z,18.4
2017-08-23T10:35:23.578Z,18.4
2017-08-23T10:36:23.270Z,18.5
2017-08-23T10:37:22.330Z,18.5
2017-08-23T10:38:21.413Z,18.5
2017-08-23T10:39:20.984Z,18.5
2017-08-23T10:40:20.438Z,18.5
2017-08-23T10:41:19.502Z,18.5
2017-08-23T10:42:19.094Z,18.5
2017-08-23T10:43:18.178Z,18.5
2017-08-23T10:44:17.248Z,18.6
2017-08-23T10:45:16.707Z,18.6
2017-08-23T10:46:16.174Z,18.5
2017-08-23T10:47:15.237Z,18.4
2017-08-23T10:49:14.202Z,18.4
2017-08-23T10:50:13.399Z,18.4
2017-08-23T10:51:12.589Z,18.3
2017-08-23T10:52:12.164Z,18.3
2017-08-23T10:53:11.125Z,18.3
2017-08-23T10:54:10.711Z,18.3
2017-08-23T10:55:09.778Z,18.3
2017-08-23T10:56:09.358Z,18.3
2017-08-23T10:57:08.542Z,18.4
2017-08-23T10:58:07.620Z,18.5
2017-08-23T10:59:07.195Z,18.6
2017-08-23T11:00:06.390Z,18.6
2017-08-23T11:01:06.089Z,18.6
2017-08-23T11:02:05.163Z,18.5
2017-08-23T11:03:04.613Z,18.5
2017-08-23T11:04:03.697Z,18.4
2017-08-23T11:05:03.163Z,18.4
2017-08-23T11:06:02.109Z,18.4
2017-08-23T11:07:01.554Z,18.4
2017-08-23T11:08:01.035Z,18.4
2017-08-23T11:09:00.101Z,18.5
2017-08-23T11:09:59.794Z,18.5
2017-08-23T11:10:58.897Z,18.5
2017-08-23T11:11:58.589Z,18.5
2017-08-23T11:12:57.792Z,18.5
2017-08-23T11:13:56.864Z,18.6
2017-08-23T11:14:56.437Z,18.7
2017-08-23T11:15:55.621Z,18.8
2017-08-23T11:17:54.193Z,18.9
2017-08-23T11:18:53.373Z,18.9
2017-08-23T11:19:53.064Z,18.9
2017-08-23T11:20:23.573Z,18.9
2017-08-23T11:20:54.072Z,19
2017-08-23T11:21:51.509Z,19
2017-08-23T11:22:50.701Z,19.1
2017-08-23T11:25:49.072Z,19.2
2017-08-23T11:26:48.148Z,19.3
2017-08-23T11:27:47.465Z,19.3
2017-08-23T11:28:47.052Z,19.3
2017-08-23T11:29:46.120Z,19.3
2017-08-23T11:30:45.582Z,19.4
2017-08-23T11:31:44.646Z,19.5
2017-08-23T11:32:44.110Z,19.5
2017-08-23T11:33:43.192Z,19.6
2017-08-23T11:34:42.878Z,19.6
2017-08-23T11:36:41.451Z,19.6
2017-08-23T11:37:41.020Z,19.6
2017-08-23T11:38:40.210Z,19.6
2017-08-23T11:39:39.391Z,19.6
2017-08-23T11:40:38.838Z,19.5
2017-08-23T11:41:38.424Z,19.5
2017-08-23T11:43:36.889Z,19.5
2017-08-23T11:44:35.967Z,19.5
2017-08-23T11:46:34.697Z,19.4
2017-08-23T11:47:34.166Z,19.4
2017-08-23T11:48:33.863Z,19.3
2017-08-23T11:49:33.042Z,19.4
2017-08-23T11:50:32.118Z,19.5
2017-08-23T11:51:31.807Z,19.6
2017-08-23T11:53:30.141Z,19.9
2017-08-23T11:54:29.649Z,20
2017-08-23T11:55:28.870Z,20.2
2017-08-23T11:56:28.329Z,20.3
2017-08-23T11:57:27.521Z,20.4
2017-08-23T11:58:27.159Z,20.4
2017-08-23T11:59:26.471Z,20.5
2017-08-23T12:00:26.037Z,20.6
2017-08-23T12:01:25.104Z,20.6
2017-08-23T12:02:24.296Z,20.6
2017-08-23T12:04:23.389Z,20.8
2017-08-23T12:05:22.455Z,20.9
2017-08-23T12:06:22.026Z,20.9
2017-08-23T12:07:21.100Z,20.9
2017-08-23T12:08:20.781Z,20.8
2017-08-23T12:09:19.856Z,20.9
2017-08-23T12:10:19.544Z,20.9
2017-08-23T12:11:18.735Z,21
2017-08-23T12:12:17.930Z,21.1
2017-08-23T12:13:17.507Z,21
2017-08-23T12:14:16.961Z,21
2017-08-23T12:15:16.040Z,21.1
2017-08-23T12:16:15.522Z,21.2
2017-08-23T12:17:15.099Z,21.3
2017-08-23T12:18:14.052Z,21.3
2017-08-23T12:19:13.638Z,21.4
2017-08-23T12:20:12.827Z,21.5
2017-08-23T12:21:12.388Z,21.6
2017-08-23T12:22:11.972Z,21.7
2017-08-23T12:23:11.152Z,21.8
2017-08-23T12:24:10.233Z,21.7
2017-08-23T12:25:09.689Z,21.7
2017-08-23T12:26:09.133Z,21.6
2017-08-23T12:27:08.823Z,21.7
2017-08-23T12:28:08.004Z,21.8
2017-08-23T12:29:07.187Z,21.7
2017-08-23T12:30:06.769Z,21.7
2017-08-23T12:31:05.954Z,21.7
2017-08-23T12:33:05.078Z,21.9
2017-08-23T12:34:04.272Z,21.8
2017-08-23T12:35:03.455Z,22
2017-08-23T12:36:03.159Z,22
2017-08-23T12:37:02.377Z,21.9
2017-08-23T12:38:01.938Z,22
2017-08-23T12:39:01.128Z,22
2017-08-23T12:40:00.820Z,22.1
2017-08-23T12:40:59.901Z,22.2
2017-08-23T12:41:59.584Z,22.3
2017-08-23T12:42:58.762Z,22.4
2017-08-23T12:43:57.826Z,22.4
2017-08-23T12:44:57.723Z,22.5
2017-08-23T12:45:56.784Z,22.4
2017-08-23T12:46:56.471Z,22.5
2017-08-23T12:47:55.670Z,22.6
2017-08-23T12:48:55.375Z,22.7
2017-08-23T12:49:54.314Z,22.6
2017-08-23T12:50:53.760Z,22.6
2017-08-23T12:51:53.099Z,22.5
2017-08-23T12:52:52.431Z,22.6
2017-08-23T12:53:52.138Z,22.7
2017-08-23T12:54:51.213Z,22.6
2017-08-23T12:55:50.904Z,22.7
2017-08-23T12:56:50.094Z,22.7
2017-08-23T12:57:49.670Z,22.7
2017-08-23T12:58:49.118Z,22.7
2017-08-23T12:59:48.695Z,22.7
2017-08-23T13:00:47.669Z,22.3
2017-08-23T13:01:47.361Z,22.4
2017-08-23T13:02:46.549Z,22.4
2017-08-23T13:03:45.999Z,22.5
2017-08-23T13:04:45.680Z,22.5
2017-08-23T13:05:45.137Z,22.6
2017-08-23T13:06:44.083Z,22.7
2017-08-23T13:07:43.644Z,22.6
2017-08-23T13:08:14.410Z,22.6
2017-08-23T13:08:44.914Z,22.5
2017-08-23T13:09:15.308Z,22.5
2017-08-23T13:12:40.843Z,23
2017-08-23T13:13:39.938Z,23.1
2017-08-23T13:14:39.960Z,23.2
2017-08-23T13:15:39.151Z,23
2017-08-23T13:16:38.095Z,22.9
2017-08-23T13:17:37.773Z,22.9
2017-08-23T13:18:37.462Z,23
2017-08-23T13:19:36.431Z,23
2017-08-23T13:20:35.997Z,23
2017-08-23T13:21:35.750Z,23.1
2017-08-23T13:22:34.959Z,23.2
2017-08-23T13:23:34.136Z,23.2
2017-08-23T13:24:33.577Z,23.1
2017-08-23T13:25:33.261Z,23
2017-08-23T13:26:32.823Z,23.1
2017-08-23T13:27:32.009Z,23.2
2017-08-23T13:28:31.592Z,23.3
2017-08-23T13:29:30.801Z,23.3
2017-08-23T13:30:30.485Z,23.2
2017-08-23T13:31:29.678Z,23.3
2017-08-23T13:32:29.368Z,23.4
2017-08-23T13:33:28.451Z,23.6
2017-08-23T13:34:28.138Z,23.6
2017-08-23T13:35:27.291Z,23.5
2017-08-23T13:36:26.869Z,23.6
2017-08-23T13:37:25.925Z,23.7
2017-08-23T13:38:25.614Z,23.7
2017-08-23T13:39:25.181Z,23.9
2017-08-23T13:40:24.366Z,23.7
2017-08-23T13:41:24.066Z,23.6
2017-08-23T13:42:23.253Z,23.8